PLVO2: Washita River nr Pauls Valley, OK

Data processed at Wed May 22 2019 23:50


All information presented herein is the property of the government of the United States of America and may be revised or deleted at any time without prior notice.
Dissemination of this information without the expressed written consent of the Public Affairs Office, Tulsa District U.S. Army Corps of Engineers is strictly prohibited.
These data are gathered electronically and, as presented, have not undergone any form of quality control. These data are not guaranteed to be valid or correct.
Go to home page.
Go to station list.
Go to home page.

Upstream stations:

Downstream station:
Previous Day
Next Day
Current Day
    
SHEF ID:       PLVO2     Washita River near Pauls Valley
STATION TYPE:  
Regulating: Stage =    29.00, Flow =    32360

               PRECIP     STAGE  RIV-FLOW  BAT-LOAD
                   in        ft       cfs      volt
              Ccp-Rev   Ccp-Rev   Ccp-Rev   Ccp-Rev
(US/Central)
05/22 00:00      0.00     13.86      8836     12.65
05/22 01:00      0.00     14.09      9121     12.65
05/22 02:00      0.00     14.28      9349     12.65
05/22 03:00      0.00     14.50      9615     12.65
05/22 04:00      0.00     14.66      9809     12.57
05/22 05:00      0.00     14.77      9944     12.57
05/22 06:00      0.00     14.97     10190     12.57
05/22 07:00      0.00     15.24     10525     12.57
05/22 08:00      0.00     15.38     10700     12.57
05/22 09:00      0.00     15.48     10825     12.57
05/22 10:00      0.00     15.54     10900     12.89
05/22 11:00      0.00     15.69     11090     13.05
05/22 12:00      0.00     15.86     11305     13.05
05/22 13:00      0.00     15.98     11458     12.97
05/22 14:00      0.00     16.12     11638     12.89
05/22 15:00      0.00     16.29     11856     12.89
05/22 16:00      0.00     16.39     11986     12.89
05/22 17:00      0.00     16.48     12102     12.89
05/22 18:00      0.00     16.50     12128     12.81
05/22 19:00      0.00     16.57     12219     12.81
05/22 20:00      0.00     16.57     12219     12.73
05/22 21:00      0.00     16.56     12206     12.73
05/22 22:00      0.00     16.54     12180     12.73
05/22 23:00      0.00     16.54     12180     12.65